createdAt,value
2022-10-23T00:00:27.345Z,12.09
2022-10-23T00:01:27.272Z,12.05
2022-10-23T00:02:27.352Z,12.10
2022-10-23T00:03:27.250Z,12.13
2022-10-23T00:04:27.236Z,12.07
2022-10-23T00:05:27.230Z,12.09
2022-10-23T00:06:27.215Z,12.04
2022-10-23T00:07:27.269Z,12.02
2022-10-23T00:08:27.191Z,11.91
2022-10-23T00:09:27.183Z,11.95
2022-10-23T00:10:27.170Z,11.90
2022-10-23T00:11:27.158Z,11.95
2022-10-23T00:12:27.167Z,11.83
2022-10-23T00:13:27.140Z,11.94
2022-10-23T00:14:27.162Z,11.86
2022-10-23T00:15:27.134Z,11.90
2022-10-23T00:16:27.099Z,11.82
2022-10-23T00:17:27.111Z,11.79
2022-10-23T00:18:27.079Z,11.85
2022-10-23T00:19:27.089Z,11.82
2022-10-23T00:20:27.058Z,11.83
2022-10-23T00:21:27.046Z,11.80
2022-10-23T00:22:27.053Z,11.72
2022-10-23T00:23:27.022Z,11.70
2022-10-23T00:24:27.013Z,11.67
2022-10-23T00:25:27.019Z,11.72
2022-10-23T00:26:26.989Z,11.67
2022-10-23T00:27:26.997Z,11.69
2022-10-23T00:28:26.965Z,11.64
2022-10-23T00:29:26.979Z,11.62
2022-10-23T00:30:26.961Z,11.57
2022-10-23T00:31:26.967Z,11.60
2022-10-23T00:32:26.987Z,11.58
2022-10-23T00:33:26.909Z,11.55
2022-10-23T00:34:26.900Z,11.54
2022-10-23T00:35:26.887Z,11.54
2022-10-23T00:36:26.895Z,11.52
2022-10-23T00:37:26.862Z,11.49
2022-10-23T00:38:26.850Z,11.51
2022-10-23T00:39:26.843Z,11.49
2022-10-23T00:40:26.828Z,11.51
2022-10-23T00:41:26.839Z,11.36
2022-10-23T00:42:26.806Z,11.36
2022-10-23T00:43:26.794Z,11.44
2022-10-23T00:44:26.783Z,11.43
2022-10-23T00:45:26.775Z,11.35
2022-10-23T00:46:26.797Z,11.39
2022-10-23T00:47:26.750Z,11.42
2022-10-23T00:48:26.737Z,11.29
2022-10-23T00:49:26.728Z,11.29
2022-10-23T00:50:26.715Z,11.35
2022-10-23T00:51:26.725Z,11.27
2022-10-23T00:52:26.692Z,11.28
2022-10-23T00:53:26.688Z,11.39
2022-10-23T00:54:26.670Z,11.39
2022-10-23T00:55:26.681Z,11.28
2022-10-23T00:56:26.670Z,11.32
2022-10-23T00:57:26.637Z,11.28
2022-10-23T00:58:26.625Z,11.40
2022-10-23T00:59:26.637Z,11.32
2022-10-23T01:00:26.602Z,11.37
2022-10-23T01:01:26.770Z,11.40
2022-10-23T01:02:26.663Z,11.33
2022-10-23T01:03:26.592Z,11.43
2022-10-23T01:04:26.555Z,11.32
2022-10-23T01:05:26.549Z,11.42
2022-10-23T01:06:26.555Z,11.33
2022-10-23T01:07:26.529Z,11.33
2022-10-23T01:08:26.510Z,11.33
2022-10-23T01:09:26.500Z,11.27
2022-10-23T01:10:26.488Z,11.29
2022-10-23T01:11:26.498Z,11.28
2022-10-23T01:12:26.468Z,11.33
2022-10-23T01:13:26.456Z,11.35
2022-10-23T01:14:26.443Z,11.29
2022-10-23T01:15:26.452Z,11.33
2022-10-23T01:16:26.440Z,11.33
2022-10-23T01:17:26.410Z,11.33
2022-10-23T01:18:26.436Z,11.32
2022-10-23T01:19:26.385Z,11.32
2022-10-23T01:20:26.375Z,11.28
2022-10-23T01:21:26.384Z,11.33
2022-10-23T01:22:26.377Z,11.32
2022-10-23T01:23:26.341Z,11.28
2022-10-23T01:24:26.342Z,11.29
2022-10-23T01:25:26.321Z,11.32
2022-10-23T01:26:26.308Z,11.19
2022-10-23T01:27:26.315Z,11.28
2022-10-23T01:28:26.306Z,11.22
2022-10-23T01:29:26.272Z,11.25
2022-10-23T01:30:26.285Z,11.24
2022-10-23T01:31:26.249Z,11.24
2022-10-23T01:32:26.258Z,11.29
2022-10-23T01:33:26.248Z,11.28
2022-10-23T01:34:26.235Z,11.29
2022-10-23T01:35:26.204Z,11.27
2022-10-23T01:36:26.197Z,11.27
2022-10-23T01:37:26.182Z,11.28
2022-10-23T01:38:26.194Z,11.28
2022-10-23T01:39:26.158Z,11.25
2022-10-23T01:40:26.149Z,11.22
2022-10-23T01:41:26.138Z,11.35
2022-10-23T01:42:26.126Z,11.29
2022-10-23T01:43:26.137Z,11.37
2022-10-23T01:44:26.104Z,11.32
2022-10-23T01:45:26.091Z,11.25
2022-10-23T01:46:26.080Z,11.25
2022-10-23T01:47:26.103Z,11.24
2022-10-23T01:48:26.113Z,11.25
2022-10-23T01:49:26.044Z,11.21
2022-10-23T01:50:26.055Z,11.18
2022-10-23T01:51:26.027Z,11.09
2022-10-23T01:52:26.020Z,11.15
2022-10-23T01:53:26.022Z,11.06
2022-10-23T01:54:25.990Z,11.14
2022-10-23T01:55:25.976Z,11.09
2022-10-23T01:56:25.967Z,11.11
2022-10-23T01:57:25.957Z,11.03
2022-10-23T01:58:25.948Z,11.03
2022-10-23T01:59:26.077Z,10.99
2022-10-23T02:00:25.925Z,10.92
2022-10-23T02:01:26.085Z,10.81
2022-10-23T02:02:25.944Z,10.85
2022-10-23T02:03:25.888Z,10.82
2022-10-23T02:04:25.897Z,10.84
2022-10-23T02:05:25.885Z,10.76
2022-10-23T02:06:25.871Z,10.78
2022-10-23T02:07:25.868Z,10.68
2022-10-23T02:08:25.830Z,10.68
2022-10-23T02:09:25.823Z,10.68
2022-10-23T02:10:25.812Z,10.64
2022-10-23T02:11:25.798Z,10.68
2022-10-23T02:13:25.802Z,10.61
2022-10-23T02:14:25.763Z,10.66
2022-10-23T02:15:25.773Z,10.60
2022-10-23T02:16:25.740Z,10.61
2022-10-23T02:17:25.778Z,10.52
2022-10-23T02:18:25.721Z,10.56
2022-10-23T02:19:25.708Z,10.51
2022-10-23T02:20:25.752Z,10.53
2022-10-23T02:21:25.846Z,10.45
2022-10-23T02:22:25.753Z,10.44
2022-10-23T02:23:25.663Z,10.38
2022-10-23T02:24:25.649Z,10.45
2022-10-23T02:25:25.691Z,10.45
2022-10-23T02:26:25.659Z,10.42
2022-10-23T02:27:25.686Z,10.34
2022-10-23T02:28:25.605Z,10.26
2022-10-23T02:29:25.593Z,10.29
2022-10-23T02:30:25.623Z,10.26
2022-10-23T02:31:25.663Z,10.29
2022-10-23T02:32:25.559Z,10.30
2022-10-23T02:33:25.633Z,10.34
2022-10-23T02:34:25.616Z,10.17
2022-10-23T02:35:25.579Z,10.26
2022-10-23T02:36:25.691Z,10.15
2022-10-23T02:37:25.612Z,10.20
2022-10-23T02:38:25.553Z,10.14
2022-10-23T02:39:25.525Z,10.15
2022-10-23T02:40:25.467Z,10.22
2022-10-23T02:41:25.463Z,10.15
2022-10-23T02:42:25.595Z,10.25
2022-10-23T02:43:25.599Z,10.27
2022-10-23T02:44:25.440Z,10.26
2022-10-23T02:45:25.435Z,10.18
2022-10-23T02:46:25.441Z,10.09
2022-10-23T02:47:25.391Z,10.14
2022-10-23T02:48:25.381Z,10.18
2022-10-23T02:49:25.367Z,10.17
2022-10-23T02:50:25.379Z,10.22
2022-10-23T02:51:25.344Z,10.17
2022-10-23T02:52:25.352Z,10.18
2022-10-23T02:53:25.327Z,10.18
2022-10-23T02:54:25.326Z,10.17
2022-10-23T02:55:25.299Z,10.04
2022-10-23T02:56:25.303Z,10.12
2022-10-23T02:57:25.297Z,10.04
2022-10-23T02:58:25.267Z,10.02
2022-10-23T02:59:25.264Z,10.02
2022-10-23T03:00:25.311Z,10.02
2022-10-23T03:01:25.340Z,9.97
2022-10-23T03:02:25.945Z,10.02
2022-10-23T03:03:25.212Z,10.05
2022-10-23T03:04:25.199Z,10.11
2022-10-23T03:05:25.186Z,10.09
2022-10-23T03:06:25.189Z,10.02
2022-10-23T03:07:25.183Z,9.99
2022-10-23T03:08:25.152Z,9.99
2022-10-23T03:09:25.145Z,10.04
2022-10-23T03:10:25.148Z,9.97
2022-10-23T03:11:25.117Z,9.97
2022-10-23T03:12:25.129Z,9.97
2022-10-23T03:13:25.094Z,9.99
2022-10-23T03:14:25.380Z,10.07
2022-10-23T03:15:25.076Z,10.05
2022-10-23T03:16:25.060Z,10.11
2022-10-23T03:17:25.049Z,10.04
2022-10-23T03:18:25.038Z,10.09
2022-10-23T03:19:25.051Z,9.99
2022-10-23T03:20:25.015Z,9.99
2022-10-23T03:21:25.005Z,9.96
2022-10-23T03:22:24.993Z,9.94
2022-10-23T03:23:24.981Z,9.94
2022-10-23T03:24:24.988Z,9.90
2022-10-23T03:25:24.979Z,9.94
2022-10-23T03:26:24.961Z,9.96
2022-10-23T03:27:25.018Z,9.94
2022-10-23T03:28:24.923Z,10.08
2022-10-23T03:29:24.935Z,10.02
2022-10-23T03:30:24.903Z,10.20
2022-10-23T03:31:24.889Z,10.18
2022-10-23T03:32:24.877Z,10.14
2022-10-23T03:33:24.874Z,10.18
2022-10-23T03:34:24.879Z,10.12
2022-10-23T03:35:24.844Z,10.11
2022-10-23T03:36:24.831Z,10.01
2022-10-23T03:37:24.821Z,10.01
2022-10-23T03:38:24.815Z,9.96
2022-10-23T03:39:24.799Z,10.11
2022-10-23T03:40:24.839Z,10.07
2022-10-23T03:41:24.778Z,10.09
2022-10-23T03:42:24.788Z,10.05
2022-10-23T03:43:24.779Z,10.14
2022-10-23T03:44:24.761Z,10.22
2022-10-23T03:45:24.731Z,10.15
2022-10-23T03:46:24.742Z,10.11
2022-10-23T03:47:24.729Z,10.20
2022-10-23T03:48:24.716Z,10.29
2022-10-23T03:49:24.706Z,10.14
2022-10-23T03:50:24.699Z,10.27
2022-10-23T03:51:24.664Z,10.27
2022-10-23T03:53:24.662Z,10.22
2022-10-23T03:54:24.628Z,10.17
2022-10-23T03:55:24.617Z,10.09
2022-10-23T03:56:24.605Z,10.08
2022-10-23T03:57:24.595Z,10.11
2022-10-23T03:58:24.621Z,9.99
2022-10-23T03:59:24.577Z,10.07
2022-10-23T04:00:24.559Z,9.99
2022-10-23T04:01:24.708Z,9.96
2022-10-23T04:02:24.667Z,9.96
2022-10-23T04:03:24.553Z,9.99
2022-10-23T04:04:24.534Z,9.97
2022-10-23T04:05:24.503Z,10.04
2022-10-23T04:06:24.490Z,10.02
2022-10-23T04:07:24.482Z,9.93
2022-10-23T04:08:24.468Z,9.99
2022-10-23T04:09:24.481Z,9.90
2022-10-23T04:10:24.470Z,9.89
2022-10-23T04:11:24.435Z,9.90
2022-10-23T04:12:24.422Z,9.90
2022-10-23T04:13:24.415Z,9.90
2022-10-23T04:14:24.417Z,9.81
2022-10-23T04:15:24.412Z,9.83
2022-10-23T04:16:24.401Z,9.79
2022-10-23T04:17:24.412Z,9.79
2022-10-23T04:18:24.354Z,9.76
2022-10-23T04:19:24.344Z,9.79
2022-10-23T04:20:24.332Z,9.78
2022-10-23T04:21:24.345Z,9.79
2022-10-23T04:22:27.487Z,9.75
2022-10-23T04:23:24.303Z,9.72
2022-10-23T04:24:24.289Z,9.66
2022-10-23T04:25:24.276Z,9.64
2022-10-23T04:26:24.287Z,9.68
2022-10-23T04:27:24.277Z,9.65
2022-10-23T04:28:24.242Z,9.66
2022-10-23T04:29:24.232Z,9.75
2022-10-23T04:30:24.236Z,9.72
2022-10-23T04:31:24.211Z,9.68
2022-10-23T04:32:24.218Z,9.68
2022-10-23T04:33:24.215Z,9.68
2022-10-23T04:34:24.172Z,9.58
2022-10-23T04:35:24.163Z,9.57
2022-10-23T04:36:24.149Z,9.51
2022-10-23T04:37:24.140Z,9.50
2022-10-23T04:38:24.150Z,9.53
2022-10-23T04:39:24.150Z,9.42
2022-10-23T04:40:24.105Z,9.47
2022-10-23T04:41:24.116Z,9.43
2022-10-23T04:42:24.136Z,9.42
2022-10-23T04:43:24.091Z,9.40
2022-10-23T04:44:24.058Z,9.48
2022-10-23T04:45:24.049Z,9.48
2022-10-23T04:46:24.075Z,9.47
2022-10-23T04:47:24.027Z,9.46
2022-10-23T04:48:26.894Z,9.51
2022-10-23T04:49:25.023Z,9.36
2022-10-23T04:50:23.990Z,9.39
2022-10-23T04:51:23.980Z,9.53
2022-10-23T04:52:23.988Z,9.53
2022-10-23T04:53:23.958Z,9.56
2022-10-23T04:54:23.986Z,9.48
2022-10-23T04:55:23.935Z,9.48
2022-10-23T04:56:23.943Z,9.50
2022-10-23T04:57:23.911Z,9.53
2022-10-23T04:58:23.898Z,9.36
2022-10-23T04:59:23.909Z,9.51
2022-10-23T05:00:23.881Z,9.48
2022-10-23T05:01:24.006Z,9.47
2022-10-23T05:02:23.871Z,9.46
2022-10-23T05:03:23.864Z,9.46
2022-10-23T05:04:23.830Z,9.53
2022-10-23T05:05:23.823Z,9.40
2022-10-23T05:06:23.834Z,9.46
2022-10-23T05:07:23.800Z,9.42
2022-10-23T05:08:23.789Z,9.33
2022-10-23T05:09:23.796Z,9.32
2022-10-23T05:10:23.762Z,9.38
2022-10-23T05:11:23.753Z,9.32
2022-10-23T05:12:23.739Z,9.36
2022-10-23T05:13:23.730Z,9.36
2022-10-23T05:14:23.737Z,9.40
2022-10-23T05:15:23.705Z,9.47
2022-10-23T05:16:23.716Z,9.32
2022-10-23T05:17:23.683Z,9.40
2022-10-23T05:18:23.690Z,9.40
2022-10-23T05:19:24.462Z,9.31
2022-10-23T05:20:23.649Z,9.32
2022-10-23T05:21:23.637Z,9.38
2022-10-23T05:22:23.849Z,9.39
2022-10-23T05:23:23.615Z,9.36
2022-10-23T05:24:23.601Z,9.33
2022-10-23T05:25:23.592Z,9.31
2022-10-23T05:26:23.600Z,9.23
2022-10-23T05:27:23.594Z,9.32
2022-10-23T05:28:23.558Z,9.24
2022-10-23T05:29:23.554Z,9.29
2022-10-23T05:30:23.535Z,9.26
2022-10-23T05:31:23.526Z,9.20
2022-10-23T05:32:23.519Z,9.26
2022-10-23T05:33:23.525Z,9.18
2022-10-23T05:34:23.509Z,9.20
2022-10-23T05:35:23.479Z,9.21
2022-10-23T05:36:23.471Z,9.18
2022-10-23T05:37:23.456Z,9.21
2022-10-23T05:38:23.465Z,9.17
2022-10-23T05:39:23.454Z,9.23
2022-10-23T05:40:23.422Z,9.21
2022-10-23T05:41:23.411Z,9.17
2022-10-23T05:42:23.417Z,9.17
2022-10-23T05:43:23.388Z,9.24
2022-10-23T05:44:23.382Z,9.18
2022-10-23T05:45:23.385Z,9.15
2022-10-23T05:46:23.353Z,9.23
2022-10-23T05:47:23.344Z,9.24
2022-10-23T05:48:34.166Z,9.15
2022-10-23T05:49:24.340Z,9.20
2022-10-23T05:50:23.328Z,9.31
2022-10-23T05:51:23.324Z,9.26
2022-10-23T05:52:23.285Z,9.35
2022-10-23T05:53:23.275Z,9.39
2022-10-23T05:54:23.286Z,9.40
2022-10-23T05:55:23.252Z,9.42
2022-10-23T05:56:23.238Z,9.39
2022-10-23T05:57:23.239Z,9.35
2022-10-23T05:58:23.222Z,9.29
2022-10-23T05:59:23.427Z,9.48
2022-10-23T06:00:23.201Z,9.46
2022-10-23T06:01:23.318Z,9.31
2022-10-23T06:02:23.306Z,9.39
2022-10-23T06:03:23.163Z,9.43
2022-10-23T06:04:23.184Z,9.38
2022-10-23T06:05:23.140Z,9.42
2022-10-23T06:06:23.147Z,9.38
2022-10-23T06:07:23.116Z,9.40
2022-10-23T06:08:23.104Z,9.50
2022-10-23T06:09:23.097Z,9.36
2022-10-23T06:10:23.102Z,9.48
2022-10-23T06:11:23.123Z,9.48
2022-10-23T06:12:23.058Z,9.46
2022-10-23T06:13:23.049Z,9.53
2022-10-23T06:14:23.038Z,9.51
2022-10-23T06:15:23.048Z,9.53
2022-10-23T06:16:23.015Z,9.50
2022-10-23T06:17:23.023Z,9.48
2022-10-23T06:18:22.993Z,9.50
2022-10-23T06:19:22.979Z,9.48
2022-10-23T06:20:26.555Z,9.48
2022-10-23T06:21:23.955Z,9.57
2022-10-23T06:22:22.967Z,9.51
2022-10-23T06:23:22.935Z,9.64
2022-10-23T06:24:22.924Z,9.58
2022-10-23T06:25:22.911Z,9.58
2022-10-23T06:26:22.926Z,9.60
2022-10-23T06:27:22.888Z,9.76
2022-10-23T06:28:22.899Z,9.74
2022-10-23T06:29:22.874Z,9.81
2022-10-23T06:30:22.889Z,9.78
2022-10-23T06:31:22.844Z,9.86
2022-10-23T06:32:22.833Z,9.97
2022-10-23T06:33:22.843Z,9.86
2022-10-23T06:34:22.810Z,9.87
2022-10-23T06:35:22.797Z,9.93
2022-10-23T06:36:22.790Z,9.96
2022-10-23T06:37:22.800Z,9.96
2022-10-23T06:38:22.782Z,10.02
2022-10-23T06:39:23.207Z,10.07
2022-10-23T06:40:22.742Z,9.94
2022-10-23T06:41:22.729Z,10.09
2022-10-23T06:42:22.741Z,10.15
2022-10-23T06:43:22.709Z,10.14
2022-10-23T06:44:22.718Z,10.20
2022-10-23T06:45:22.684Z,10.17
2022-10-23T06:46:22.675Z,10.20
2022-10-23T06:47:22.663Z,10.32
2022-10-23T06:48:22.652Z,10.29
2022-10-23T06:49:22.661Z,10.26
2022-10-23T06:50:22.632Z,10.15
2022-10-23T06:51:22.617Z,10.20
2022-10-23T06:52:45.533Z,10.22
2022-10-23T06:53:23.592Z,10.22
2022-10-23T06:54:22.621Z,10.32
2022-10-23T06:55:22.573Z,10.30
2022-10-23T06:56:22.581Z,10.26
2022-10-23T06:57:22.547Z,10.26
2022-10-23T06:58:22.562Z,10.41
2022-10-23T06:59:22.523Z,10.38
2022-10-23T07:00:22.534Z,10.34
2022-10-23T07:01:22.688Z,10.38
2022-10-23T07:02:22.494Z,10.38
2022-10-23T07:03:22.479Z,10.41
2022-10-23T07:04:22.496Z,10.40
2022-10-23T07:05:22.460Z,10.41
2022-10-23T07:06:22.447Z,10.55
2022-10-23T07:07:22.434Z,10.55
2022-10-23T07:08:22.425Z,10.47
2022-10-23T07:09:22.433Z,10.47
2022-10-23T07:10:22.418Z,10.52
2022-10-23T07:11:22.395Z,10.55
2022-10-23T07:12:22.380Z,10.56
2022-10-23T07:13:22.370Z,10.64
2022-10-23T07:14:22.378Z,10.59
2022-10-23T07:15:22.371Z,10.59
2022-10-23T07:16:22.341Z,10.55
2022-10-23T07:17:22.325Z,10.60
2022-10-23T07:18:22.346Z,10.59
2022-10-23T07:19:22.306Z,10.68
2022-10-23T07:20:22.291Z,10.67
2022-10-23T07:21:22.300Z,10.78
2022-10-23T07:22:22.272Z,10.76
2022-10-23T07:23:22.274Z,10.85
2022-10-23T07:24:22.271Z,10.73
2022-10-23T07:25:22.257Z,10.84
2022-10-23T07:26:22.239Z,10.82
2022-10-23T07:27:22.209Z,10.89
2022-10-23T07:28:22.206Z,11.02
2022-10-23T07:29:22.186Z,11.06
2022-10-23T07:30:22.198Z,11.14
2022-10-23T07:31:24.402Z,11.14
2022-10-23T07:32:23.152Z,11.11
2022-10-23T07:33:22.141Z,11.24
2022-10-23T07:34:22.153Z,11.15
2022-10-23T07:35:22.138Z,11.25
2022-10-23T07:36:22.108Z,11.15
2022-10-23T07:37:22.096Z,11.17
2022-10-23T07:38:22.091Z,11.14
2022-10-23T07:39:22.073Z,11.21
2022-10-23T07:40:22.082Z,11.22
2022-10-23T07:41:22.053Z,11.29
2022-10-23T07:42:22.059Z,11.33
2022-10-23T07:43:22.106Z,11.36
2022-10-23T07:44:24.336Z,11.43
2022-10-23T07:45:23.030Z,11.43
2022-10-23T07:46:22.002Z,11.43
2022-10-23T07:47:21.981Z,11.36
2022-10-23T07:48:21.974Z,11.39
2022-10-23T07:49:21.959Z,11.42
2022-10-23T07:50:21.951Z,11.44
2022-10-23T07:51:21.959Z,11.55
2022-10-23T07:52:21.927Z,11.49
2022-10-23T07:53:21.915Z,11.54
2022-10-23T07:54:21.905Z,11.64
2022-10-23T07:55:21.913Z,11.61
2022-10-23T07:56:21.881Z,11.70
2022-10-23T07:57:21.868Z,11.67
2022-10-23T07:58:21.876Z,11.73
2022-10-23T07:59:21.846Z,11.85
2022-10-23T08:00:21.873Z,11.85
2022-10-23T08:01:21.902Z,11.94
2022-10-23T08:02:21.867Z,12.04
2022-10-23T08:03:21.803Z,12.02
2022-10-23T08:04:21.810Z,12.05
2022-10-23T08:05:21.777Z,12.14
2022-10-23T08:06:21.786Z,12.13
2022-10-23T08:07:21.755Z,12.16
2022-10-23T08:08:21.774Z,12.17
2022-10-23T08:09:21.754Z,12.21
2022-10-23T08:10:21.743Z,12.28
2022-10-23T08:11:21.709Z,12.34
2022-10-23T08:12:21.700Z,12.34
2022-10-23T08:13:21.687Z,12.29
2022-10-23T08:14:21.758Z,12.45
2022-10-23T08:15:21.666Z,12.46
2022-10-23T08:16:21.656Z,12.60
2022-10-23T08:17:24.019Z,12.50
2022-10-23T08:18:21.655Z,12.64
2022-10-23T08:19:21.641Z,12.68
2022-10-23T08:20:21.626Z,12.82
2022-10-23T08:21:21.689Z,12.90
2022-10-23T08:22:21.591Z,13.03
2022-10-23T08:23:21.579Z,12.97
2022-10-23T08:24:21.566Z,13.00
2022-10-23T08:25:24.864Z,13.14
2022-10-23T08:26:21.563Z,13.29
2022-10-23T08:27:21.552Z,13.39
2022-10-23T08:28:21.640Z,13.33
2022-10-23T08:29:21.506Z,13.42
2022-10-23T08:30:21.514Z,13.45
2022-10-23T08:31:21.508Z,13.51
2022-10-23T08:32:21.473Z,13.69
2022-10-23T08:33:21.460Z,13.73
2022-10-23T08:34:21.451Z,13.91
2022-10-23T08:35:21.460Z,13.95
2022-10-23T08:36:21.430Z,14.00
2022-10-23T08:37:21.418Z,13.99
2022-10-23T08:38:21.405Z,14.15
2022-10-23T08:39:21.577Z,14.15
2022-10-23T08:40:21.443Z,14.17
2022-10-23T08:41:21.370Z,14.20
2022-10-23T08:42:21.365Z,14.25
2022-10-23T08:43:21.357Z,14.29
2022-10-23T08:44:21.449Z,14.29
2022-10-23T08:45:21.346Z,14.39
2022-10-23T08:46:21.331Z,14.43
2022-10-23T08:47:21.301Z,14.32
2022-10-23T08:48:21.292Z,14.40
2022-10-23T08:49:21.279Z,14.42
2022-10-23T08:50:21.382Z,14.43
2022-10-23T08:51:21.256Z,14.40
2022-10-23T08:52:21.249Z,14.57
2022-10-23T08:53:21.234Z,14.62
2022-10-23T08:54:21.245Z,14.64
2022-10-23T08:55:21.212Z,14.64
2022-10-23T08:56:21.203Z,14.65
2022-10-23T08:57:21.188Z,14.75
2022-10-23T08:58:21.177Z,14.84
2022-10-23T08:59:21.186Z,14.94
2022-10-23T09:00:21.229Z,15.01
2022-10-23T09:01:21.403Z,15.01
2022-10-23T09:02:21.290Z,15.09
2022-10-23T09:03:21.130Z,15.20
2022-10-23T09:04:21.110Z,15.20
2022-10-23T09:05:21.105Z,15.32
2022-10-23T09:06:21.090Z,15.34
2022-10-23T09:07:21.096Z,15.38
2022-10-23T09:08:21.065Z,15.43
2022-10-23T09:09:21.051Z,15.47
2022-10-23T09:10:21.063Z,15.65
2022-10-23T09:11:21.029Z,15.62
2022-10-23T09:12:21.044Z,15.65
2022-10-23T09:13:21.007Z,15.74
2022-10-23T09:14:21.006Z,15.72
2022-10-23T09:15:21.020Z,15.80
2022-10-23T09:16:20.975Z,16.04
2022-10-23T09:17:20.966Z,16.15
2022-10-23T09:18:20.981Z,16.20
2022-10-23T09:19:20.960Z,16.30
2022-10-23T09:20:20.955Z,16.38
2022-10-23T09:21:20.919Z,16.33
2022-10-23T09:22:20.908Z,16.49
2022-10-23T09:23:20.902Z,16.50
2022-10-23T09:24:20.882Z,16.60
2022-10-23T09:25:20.896Z,16.58
2022-10-23T09:26:20.864Z,16.68
2022-10-23T09:27:20.852Z,16.75
2022-10-23T09:28:20.964Z,16.78
2022-10-23T09:29:20.827Z,16.82
2022-10-23T09:30:20.849Z,16.91
2022-10-23T09:31:20.804Z,16.85
2022-10-23T09:32:20.792Z,16.88
2022-10-23T09:33:20.807Z,16.86
2022-10-23T09:34:20.786Z,16.83
2022-10-23T09:35:20.757Z,16.75
2022-10-23T09:36:20.747Z,16.76
2022-10-23T09:37:21.371Z,16.75
2022-10-23T09:38:20.726Z,16.73
2022-10-23T09:39:20.732Z,16.71
2022-10-23T09:40:20.700Z,16.76
2022-10-23T09:41:20.689Z,16.86
2022-10-23T09:42:20.679Z,16.93
2022-10-23T09:43:20.704Z,17.03
2022-10-23T09:44:20.677Z,17.15
2022-10-23T09:45:20.644Z,17.33
2022-10-23T09:46:20.635Z,17.28
2022-10-23T09:47:20.644Z,17.41
2022-10-23T09:48:20.614Z,17.48
2022-10-23T09:49:20.599Z,17.44
2022-10-23T09:50:20.608Z,17.52
2022-10-23T09:51:20.616Z,17.56
2022-10-23T09:52:20.568Z,17.68
2022-10-23T09:53:20.559Z,17.54
2022-10-23T09:54:20.545Z,17.72
2022-10-23T09:55:20.535Z,17.72
2022-10-23T09:56:24.475Z,17.75
2022-10-23T09:57:20.535Z,17.95
2022-10-23T09:58:20.499Z,17.95
2022-10-23T09:59:20.489Z,17.92
2022-10-23T10:00:20.476Z,17.96
2022-10-23T10:01:20.638Z,17.92
2022-10-23T10:02:20.498Z,17.97
2022-10-23T10:03:20.442Z,18.05
2022-10-23T10:04:20.433Z,17.95
2022-10-23T10:05:20.417Z,18.02
2022-10-23T10:06:20.443Z,18.21
2022-10-23T10:07:20.427Z,18.11
2022-10-23T10:08:20.413Z,18.20
2022-10-23T10:09:20.376Z,18.23
2022-10-23T10:10:20.370Z,18.33
2022-10-23T10:11:20.353Z,18.42
2022-10-23T10:12:20.341Z,18.47
2022-10-23T10:13:20.349Z,18.51
2022-10-23T10:14:20.318Z,18.63
2022-10-23T10:15:20.306Z,18.76
2022-10-23T10:16:20.295Z,18.82
2022-10-23T10:17:20.283Z,18.81
2022-10-23T10:18:20.293Z,18.81
2022-10-23T10:19:20.260Z,18.91
2022-10-23T10:20:20.253Z,18.84
2022-10-23T10:21:20.244Z,18.80
2022-10-23T10:22:20.245Z,18.75
2022-10-23T10:23:20.242Z,18.75
2022-10-23T10:24:20.208Z,18.66
2022-10-23T10:25:20.192Z,18.63
2022-10-23T10:26:20.282Z,18.66
2022-10-23T10:27:20.192Z,18.73
2022-10-23T10:28:20.193Z,18.81
2022-10-23T10:29:20.177Z,18.65
2022-10-23T10:30:20.161Z,18.78
2022-10-23T10:31:20.212Z,18.63
2022-10-23T10:32:20.211Z,18.76
2022-10-23T10:33:20.130Z,18.70
2022-10-23T10:34:20.126Z,18.72
2022-10-23T10:35:20.119Z,18.80
2022-10-23T10:36:20.166Z,18.82
2022-10-23T10:37:20.078Z,18.82
2022-10-23T10:38:20.066Z,18.81
2022-10-23T10:39:20.092Z,18.82
2022-10-23T10:40:20.022Z,18.76
2022-10-23T10:41:20.013Z,18.87
2022-10-23T10:42:20.001Z,18.90
2022-10-23T10:43:19.991Z,18.91
2022-10-23T10:44:19.977Z,18.98
2022-10-23T10:45:19.989Z,18.98
2022-10-23T10:46:19.959Z,19.02
2022-10-23T10:47:21.252Z,19.04
2022-10-23T10:48:19.931Z,19.22
2022-10-23T10:49:20.154Z,19.28
2022-10-23T10:50:19.932Z,19.31
2022-10-23T10:51:19.900Z,19.37
2022-10-23T10:52:19.901Z,19.56
2022-10-23T10:53:19.903Z,19.73
2022-10-23T10:54:19.883Z,19.83
2022-10-23T10:55:19.858Z,20.01
2022-10-23T10:56:19.843Z,20.08
2022-10-23T10:57:19.832Z,20.02
2022-10-23T10:58:19.840Z,20.03
2022-10-23T10:59:19.810Z,20.02
2022-10-23T11:00:19.799Z,20.16
2022-10-23T11:01:19.898Z,19.98
2022-10-23T11:02:19.922Z,20.10
2022-10-23T11:03:19.792Z,19.99
2022-10-23T11:04:20.006Z,19.84
2022-10-23T11:05:19.746Z,19.74
2022-10-23T11:06:19.756Z,19.68
2022-10-23T11:07:19.721Z,19.68
2022-10-23T11:08:19.710Z,19.63
2022-10-23T11:09:21.051Z,19.55
2022-10-23T11:10:19.706Z,19.44
2022-10-23T11:11:19.709Z,19.26
2022-10-23T11:12:19.664Z,19.23
2022-10-23T11:13:19.663Z,19.29
2022-10-23T11:14:19.641Z,19.43
2022-10-23T11:15:19.652Z,19.51
2022-10-23T11:16:19.617Z,19.58
2022-10-23T11:17:19.610Z,19.58
2022-10-23T11:18:19.594Z,19.51
2022-10-23T11:19:19.609Z,19.54
2022-10-23T11:20:19.573Z,19.54
2022-10-23T11:21:19.567Z,19.46
2022-10-23T11:22:19.590Z,19.46
2022-10-23T11:23:19.542Z,19.41
2022-10-23T11:24:19.551Z,19.40
2022-10-23T11:25:19.518Z,19.39
2022-10-23T11:26:19.915Z,19.31
2022-10-23T11:27:19.498Z,19.28
2022-10-23T11:28:19.516Z,19.22
2022-10-23T11:29:19.477Z,19.22
2022-10-23T11:30:19.482Z,19.19
2022-10-23T11:31:19.453Z,19.19
2022-10-23T11:32:19.439Z,19.31
2022-10-23T11:33:19.435Z,19.31
2022-10-23T11:34:19.419Z,19.28
2022-10-23T11:35:19.431Z,19.39
2022-10-23T11:36:19.418Z,19.44
2022-10-23T11:37:19.390Z,19.41
2022-10-23T11:38:19.374Z,19.41
2022-10-23T11:39:19.362Z,19.39
2022-10-23T11:40:19.377Z,19.50
2022-10-23T11:41:22.261Z,19.37
2022-10-23T11:42:20.344Z,19.36
2022-10-23T11:43:19.340Z,19.46
2022-10-23T11:44:19.307Z,19.39
2022-10-23T11:45:19.318Z,19.33
2022-10-23T11:46:19.287Z,19.41
2022-10-23T11:47:19.273Z,19.44
2022-10-23T11:48:19.259Z,19.41
2022-10-23T11:49:19.420Z,19.43
2022-10-23T11:50:19.261Z,19.41
2022-10-23T11:51:19.227Z,19.33
2022-10-23T11:52:19.319Z,19.40
2022-10-23T11:53:19.560Z,19.31
2022-10-23T11:54:19.193Z,19.32
2022-10-23T11:55:19.205Z,19.25
2022-10-23T11:56:19.169Z,19.32
2022-10-23T11:57:19.232Z,19.36
2022-10-23T11:58:19.167Z,19.33
2022-10-23T11:59:19.164Z,19.39
2022-10-23T12:00:19.123Z,19.43
2022-10-23T12:01:19.175Z,19.44
2022-10-23T12:02:19.193Z,19.46
2022-10-23T12:03:19.092Z,19.46
2022-10-23T12:04:19.080Z,19.54
2022-10-23T12:05:19.163Z,19.62
2022-10-23T12:06:19.083Z,19.55
2022-10-23T12:07:19.052Z,19.56
2022-10-23T12:08:19.035Z,19.56
2022-10-23T12:09:19.025Z,19.50
2022-10-23T12:10:19.012Z,19.48
2022-10-23T12:11:19.029Z,19.48
2022-10-23T12:12:18.991Z,19.50
2022-10-23T12:13:18.982Z,19.59
2022-10-23T12:14:19.018Z,19.66
2022-10-23T12:15:18.958Z,19.55
2022-10-23T12:16:18.945Z,19.61
2022-10-23T12:17:18.939Z,19.54
2022-10-23T12:18:18.925Z,19.54
2022-10-23T12:19:18.935Z,19.50
2022-10-23T12:20:18.900Z,19.44
2022-10-23T12:21:18.912Z,19.37
2022-10-23T12:22:18.877Z,19.46
2022-10-23T12:23:18.876Z,19.47
2022-10-23T12:24:18.855Z,19.32
2022-10-23T12:25:18.844Z,19.41
2022-10-23T12:26:18.862Z,19.39
2022-10-23T12:27:18.825Z,19.40
2022-10-23T12:28:18.811Z,19.43
2022-10-23T12:29:18.800Z,19.33
2022-10-23T12:30:18.812Z,19.31
2022-10-23T12:31:18.811Z,19.29
2022-10-23T12:32:18.768Z,19.36
2022-10-23T12:33:18.756Z,19.39
2022-10-23T12:34:18.750Z,19.29
2022-10-23T12:35:18.737Z,19.26
2022-10-23T12:36:18.720Z,19.29
2022-10-23T12:37:18.738Z,19.22
2022-10-23T12:38:18.699Z,19.29
2022-10-23T12:39:18.692Z,19.28
2022-10-23T12:40:18.681Z,19.23
2022-10-23T12:41:18.688Z,19.18
2022-10-23T12:42:18.653Z,19.21
2022-10-23T12:43:18.645Z,19.26
2022-10-23T12:44:18.634Z,19.26
2022-10-23T12:45:18.622Z,19.16
2022-10-23T12:46:18.651Z,19.16
2022-10-23T12:47:18.605Z,19.07
2022-10-23T12:48:18.591Z,19.11
2022-10-23T12:49:18.575Z,19.02
2022-10-23T12:50:18.566Z,18.98
2022-10-23T12:51:18.553Z,19.06
2022-10-23T12:52:18.561Z,18.98
2022-10-23T12:53:18.530Z,18.98
2022-10-23T12:54:18.520Z,19.04
2022-10-23T12:55:18.508Z,18.99
2022-10-23T12:56:18.496Z,18.94
2022-10-23T12:57:18.487Z,19.00
2022-10-23T12:58:18.494Z,18.99
2022-10-23T12:59:18.467Z,18.95
2022-10-23T13:00:18.458Z,18.99